Portada
METAR-TAF:

METAR-TAF

Aeropuertos :

Aeropuerto de Gibraltar

Gibraltar, Gibraltar

latitud: 36-09N, longitud: 005-21W, altitud: 5 m

Observación

El informe se hizo hace 33 minutos, a las 05:50 UTC
Viento 12 kt del oeste
Temperatura 18°C
Humedad 77%
Presión 1016 hPa
Visibilidad 10 km o más
Escasas nubes a una altura de 2000 ft
Cielo nuboso a una altura de 18000 ft

METAR: LXGB 190550Z 27012KT 9999 FEW020 BKN180 18/14 Q1016

Hora: 08:23 (06:23 UTC)

Pronóstico

El informe se hizo hace 1 hora y 37 minutos, a las 04:46 UTC
Pronóstico válido del 19 a las 06 UTC al 19 a las 15 UTC
Viento 10 kt del oeste
Visibilidad 10 km o más
Escasas nubes a una altura de 2000 ft
Temporalmente
del 19 a las 11 UTC al 19 a las 15 UTC
Viento 15 kt del oeste-suroeste con ráfagas de 25 kt

TAF: LXGB 190446Z 1906/1915 27010KT 9999 FEW020 TEMPO 1911/1915 24015G25KT

Observaciones y pronósticos meteorológicos de más de 4000 aeropuertos (mensajes METAR y TAF).

Los puntos amarillos y rojos representan las estaciones disponibles.

Ponga el ratón en el punto deseado para ver el nombre de la estación.

Haga clic para ver las observaciones y los pronósticos meteorológicos.

Para cambiar el mapa : haga clic en los botones verdes con una cruz de color negro para hacer un zoom, en el botón verde con un guión para alejar o en las flechas verdes para mapas adyacentes.


METAR-TAF: